Time;durP1;ratioP1;P1;durP2;ratioP2;P2;SDS_P1;SDS_P2;PMS_P1;PMS_P2;Temp;Humidity;BMP_temperature;BMP_pressure;BME280_temperature;BME280_humidity;BME280_pressure;Samples;Min_cycle;Max_cycle;Signal;HPM_P1;HPM_P2
2022/12/31 00:01:06;;;;;;;;;;;;;;;;;;4807732;29;19921;-88
2022/12/31 00:03:32;;;;;;;;;;;;;;;;;;4807765;29;20298;-86
2022/12/31 00:05:58;;;;;;;;;;;;;;;;;;4807826;29;19931;-87
2022/12/31 00:08:23;;;;;;;;;;;;;;;;;;4808929;29;19922;-86
2022/12/31 00:10:49;;;;;;;;;;;;;;;;;;4807659;29;20298;-88
2022/12/31 00:13:14;;;;;;;;;;;;;;;;;;4808987;29;20298;-86
2022/12/31 00:15:41;;;;;;;;;;;;;;;;;;4808833;29;19928;-88
2022/12/31 00:18:07;;;;;;;;;;;;;;;;;;4807753;29;19952;-87
2022/12/31 00:20:33;;;;;;;;;;;;;;;;;;4808823;29;19946;-87
2022/12/31 00:22:58;;;;;;;;;;;;;;;;;;4807367;29;19972;-86
2022/12/31 00:25:24;;;;;;;;;;;;;;;;;;4808675;29;19928;-86
2022/12/31 00:27:49;;;;;;;;;;;;;;;;;;4808905;29;20385;-86
2022/12/31 00:30:14;;;;;;;;;;;;;;;;;;4808802;29;19925;-88
2022/12/31 00:32:40;;;;;;;;;;;;;;;;;;4808834;29;20295;-87
2022/12/31 00:35:05;;;;;;;;;;;;;;;;;;4807324;29;19928;-88
2022/12/31 00:37:31;;;;;;;;;;;;;;;;;;4806876;29;20020;-86
2022/12/31 00:39:56;;;;;;;;;;;;;;;;;;4808454;29;20016;-88
2022/12/31 00:42:22;;;;;;;;;;;;;;;;;;4808151;29;19929;-88
2022/12/31 00:44:47;;;;;;;;;;;;;;;;;;4808835;29;20305;-88
2022/12/31 00:47:12;;;;;;;;;;;;;;;;;;4807062;29;19917;-87
2022/12/31 00:49:38;;;;;;;;;;;;;;;;;;4808008;29;19932;-87
2022/12/31 00:52:03;;;;;;;;;;;;;;;;;;4808231;29;19970;-90
2022/12/31 00:54:29;;;;;;;;;;;;;;;;;;4808123;29;19921;-88
2022/12/31 00:56:54;;;;;;;;;;;;;;;;;;4807560;29;20016;-89
2022/12/31 00:59:20;;;;;;;;;;;;;;;;;;4806805;29;19928;-89
2022/12/31 01:01:45;;;;;;;;;;;;;;;;;;4807929;29;19925;-88
2022/12/31 01:04:16;;;;;;;;;;;;;;;;;;4808009;29;20489;-88
2022/12/31 01:06:41;;;;;;;;;;;;;;;;;;4806760;29;19917;-88
2022/12/31 01:09:07;;;;;;;;;;;;;;;;;;4807914;29;20400;-88
2022/12/31 01:11:32;;;;;;;;;;;;;;;;;;4807757;29;19917;-89
2022/12/31 01:14:01;;;;;;;;;;;;;;;;;;4806576;29;19921;-88
2022/12/31 01:16:37;;;;;;;;;;;;;;;;;;4807902;29;19921;-89
2022/12/31 01:19:06;;;;;;;;;;;;;;;;;;4806510;29;19917;-88
2022/12/31 01:21:32;;;;;;;;;;;;;;;;;;4806384;29;19921;-90
2022/12/31 01:23:58;;;;;;;;;;;;;;;;;;4806380;29;19929;-87
2022/12/31 01:26:23;;;;;;;;;;;;;;;;;;4807585;29;20415;-90
2022/12/31 01:28:48;;;;;;;;;;;;;;;;;;4806420;29;19921;-89
2022/12/31 01:31:15;;;;;;;;;;;;;;;;;;4807586;29;20334;-88
2022/12/31 01:33:41;;;;;;;;;;;;;;;;;;4827012;29;19929;-88
2022/12/31 01:36:11;;;;;;;;;;;;;;;;;;4843857;29;20282;-89
2022/12/31 01:38:37;;;;;;;;;;;;;;;;;;4843840;29;19927;-89
2022/12/31 01:41:03;;;;;;;;;;;;;;;;;;4843701;29;19920;-88
2022/12/31 01:43:45;;;;;;;;;;;;;;;;;;4827361;29;19976;-87
2022/12/31 01:46:13;;;;;;;;;;;;;;;;;;4843755;29;20020;-88
2022/12/31 01:48:38;;;;;;;;;;;;;;;;;;4843745;29;19964;-89
2022/12/31 01:51:04;;;;;;;;;;;;;;;;;;4843618;29;20415;-89
2022/12/31 01:53:29;;;;;;;;;;;;;;;;;;4843798;29;19931;-89
2022/12/31 01:55:57;;;;;;;;;;;;;;;;;;4842645;29;19927;-89
2022/12/31 01:58:26;;;;;;;;;;;;;;;;;;4843542;29;19984;-89
2022/12/31 02:00:52;;;;;;;;;;;;;;;;;;4843399;29;19944;-89
2022/12/31 02:03:18;;;;;;;;;;;;;;;;;;4843550;29;19925;-88
2022/12/31 02:05:52;;;;;;;;;;;;;;;;;;4843438;29;19921;-88
2022/12/31 02:08:18;;;;;;;;;;;;;;;;;;4842633;29;19925;-87
2022/12/31 02:10:43;;;;;;;;;;;;;;;;;;4843548;29;19920;-86
2022/12/31 02:13:09;;;;;;;;;;;;;;;;;;4827026;29;19926;-86
2022/12/31 02:15:34;;;;;;;;;;;;;;;;;;4826988;29;19920;-87
2022/12/31 02:18:06;;;;;;;;;;;;;;;;;;4826959;29;19976;-85
2022/12/31 02:20:37;;;;;;;;;;;;;;;;;;4843746;29;19920;-86
2022/12/31 02:23:06;;;;;;;;;;;;;;;;;;4843107;29;19925;-88
2022/12/31 02:25:50;;;;;;;;;;;;;;;;;;4843518;29;19921;-87
2022/12/31 02:28:26;;;;;;;;;;;;;;;;;;4843330;29;20341;-86
2022/12/31 02:31:00;;;;;;;;;;;;;;;;;;4843310;29;19946;-88
2022/12/31 02:33:31;;;;;;;;;;;;;;;;;;4826851;29;20373;-87
2022/12/31 02:36:10;;;;;;;;;;;;;;;;;;4826791;29;19921;-88
2022/12/31 02:38:39;;;;;;;;;;;;;;;;;;4841898;29;19920;-87
2022/12/31 02:41:04;;;;;;;;;;;;;;;;;;4841767;29;19927;-89
2022/12/31 02:43:30;;;;;;;;;;;;;;;;;;4826761;29;20007;-88
2022/12/31 02:46:16;;;;;;;;;;;;;;;;;;4843329;29;19920;-88
2022/12/31 02:48:48;;;;;;;;;;;;;;;;;;4827071;29;20015;-89
2022/12/31 02:51:13;;;;;;;;;;;;;;;;;;4847601;29;20000;-87
2022/12/31 02:53:49;;;;;;;;;;;;;;;;;;4862989;29;19905;-89
2022/12/31 02:56:20;;;;;;;;;;;;;;;;;;4866583;29;19964;-86
2022/12/31 03:04:34;;;;;;;;;;;;;;;;;;4843394;29;19928;-88
2022/12/31 03:07:10;;;;;;;;;;;;;;;;;;4841600;29;20020;-87
2022/12/31 03:09:36;;;;;;;;;;;;;;;;;;4843103;29;19921;-87
2022/12/31 03:14:46;;;;;;;;;;;;;;;;;;4842892;29;20330;-87
2022/12/31 03:17:11;;;;;;;;;;;;;;;;;;4842735;29;19921;-87
2022/12/31 03:22:27;;;;;;;;;;;;;;;;;;4846196;29;20015;-86
2022/12/31 03:27:41;;;;;;;;;;;;;;;;;;4846551;29;19927;-88
2022/12/31 03:30:06;;;;;;;;;;;;;;;;;;4845983;29;20300;-89
2022/12/31 03:32:32;;;;;;;;;;;;;;;;;;4845893;29;20007;-87
2022/12/31 03:34:57;;;;;;;;;;;;;;;;;;4845867;29;19931;-87
2022/12/31 03:37:23;;;;;;;;;;;;;;;;;;4845897;29;20072;-86
2022/12/31 03:39:48;;;;;;;;;;;;;;;;;;4846024;29;19921;-86
2022/12/31 03:42:13;;;;;;;;;;;;;;;;;;4829215;29;19920;-88
2022/12/31 03:44:39;;;;;;;;;;;;;;;;;;4829284;29;20404;-86
2022/12/31 03:47:04;;;;;;;;;;;;;;;;;;4845786;29;19917;-87
2022/12/31 03:49:30;;;;;;;;;;;;;;;;;;4845546;29;19992;-87
2022/12/31 03:51:55;;;;;;;;;;;;;;;;;;4829150;29;20078;-90
2022/12/31 03:54:20;;;;;;;;;;;;;;;;;;4829052;29;19916;-87
2022/12/31 03:56:46;;;;;;;;;;;;;;;;;;4845717;29;20380;-87
2022/12/31 03:59:11;;;;;;;;;;;;;;;;;;4828903;29;19921;-87
2022/12/31 04:01:37;;;;;;;;;;;;;;;;;;4845498;29;20452;-89
2022/12/31 04:04:02;;;;;;;;;;;;;;;;;;4844269;29;19974;-86
2022/12/31 04:06:28;;;;;;;;;;;;;;;;;;4828898;29;19916;-87
2022/12/31 04:08:53;;;;;;;;;;;;;;;;;;4845385;29;19921;-88
2022/12/31 04:11:18;;;;;;;;;;;;;;;;;;4828877;29;19928;-85
2022/12/31 04:13:44;;;;;;;;;;;;;;;;;;4828865;29;20361;-87
2022/12/31 04:16:09;;;;;;;;;;;;;;;;;;4828729;29;19928;-88
2022/12/31 04:18:35;;;;;;;;;;;;;;;;;;4845317;29;19976;-88
2022/12/31 04:21:04;;;;;;;;;;;;;;;;;;4845052;29;20064;-87
2022/12/31 04:23:29;;;;;;;;;;;;;;;;;;4845469;29;19921;-87
2022/12/31 04:25:54;;;;;;;;;;;;;;;;;;4845509;29;20399;-86
2022/12/31 04:28:20;;;;;;;;;;;;;;;;;;4845133;29;19921;-87
2022/12/31 04:30:45;;;;;;;;;;;;;;;;;;4827664;29;19920;-89
2022/12/31 04:33:11;;;;;;;;;;;;;;;;;;4828580;29;19917;-87
2022/12/31 04:35:36;;;;;;;;;;;;;;;;;;4843791;29;20362;-88
2022/12/31 04:38:02;;;;;;;;;;;;;;;;;;4844927;29;19970;-89
2022/12/31 04:40:27;;;;;;;;;;;;;;;;;;4828327;29;19925;-90
2022/12/31 04:42:52;;;;;;;;;;;;;;;;;;4844769;29;19927;-88
2022/12/31 04:45:18;;;;;;;;;;;;;;;;;;4845011;29;19920;-88
2022/12/31 04:47:43;;;;;;;;;;;;;;;;;;4845166;29;19921;-89
2022/12/31 04:50:09;;;;;;;;;;;;;;;;;;4844564;29;19979;-89
2022/12/31 04:52:35;;;;;;;;;;;;;;;;;;4844634;29;19925;-88
2022/12/31 04:55:00;;;;;;;;;;;;;;;;;;4843440;29;19992;-88
2022/12/31 04:57:25;;;;;;;;;;;;;;;;;;4844493;29;19920;-89
2022/12/31 04:59:51;;;;;;;;;;;;;;;;;;4844523;29;19920;-88
2022/12/31 05:02:16;;;;;;;;;;;;;;;;;;4844376;29;20011;-88
2022/12/31 05:04:42;;;;;;;;;;;;;;;;;;4844408;29;20027;-88
2022/12/31 05:07:07;;;;;;;;;;;;;;;;;;4844654;29;19929;-88
2022/12/31 05:09:33;;;;;;;;;;;;;;;;;;4844372;29;19937;-89
2022/12/31 05:11:58;;;;;;;;;;;;;;;;;;4844234;29;19920;-89
2022/12/31 05:14:24;;;;;;;;;;;;;;;;;;4827842;29;19920;-89
2022/12/31 05:16:49;;;;;;;;;;;;;;;;;;4844223;29;19927;-89
2022/12/31 05:19:14;;;;;;;;;;;;;;;;;;4844466;29;19967;-89
2022/12/31 05:21:40;;;;;;;;;;;;;;;;;;4844196;29;20326;-87
2022/12/31 05:24:06;;;;;;;;;;;;;;;;;;4827694;29;19921;-90
2022/12/31 05:26:31;;;;;;;;;;;;;;;;;;4844374;29;19928;-88
2022/12/31 05:28:59;;;;;;;;;;;;;;;;;;4844382;29;19920;-89
2022/12/31 05:31:24;;;;;;;;;;;;;;;;;;4844561;29;19924;-86
2022/12/31 05:33:50;;;;;;;;;;;;;;;;;;4843953;29;19986;-87
2022/12/31 05:36:15;;;;;;;;;;;;;;;;;;4843928;29;19927;-87
2022/12/31 05:38:41;;;;;;;;;;;;;;;;;;4843818;29;19921;-87
2022/12/31 05:41:06;;;;;;;;;;;;;;;;;;4827393;29;19920;-88
2022/12/31 05:43:32;;;;;;;;;;;;;;;;;;4827279;29;19928;-86
2022/12/31 05:46:01;;;;;;;;;;;;;;;;;;4844224;29;19930;-86
2022/12/31 05:48:27;;;;;;;;;;;;;;;;;;4842494;29;19924;-86
2022/12/31 05:50:52;;;;;;;;;;;;;;;;;;4843451;29;19931;-87
2022/12/31 05:53:18;;;;;;;;;;;;;;;;;;4843643;29;20352;-87
2022/12/31 05:55:44;;;;;;;;;;;;;;;;;;4843856;29;19927;-88
2022/12/31 05:58:09;;;;;;;;;;;;;;;;;;4843660;29;19963;-88
2022/12/31 06:00:35;;;;;;;;;;;;;;;;;;4843434;29;20338;-88
2022/12/31 06:03:00;;;;;;;;;;;;;;;;;;4843279;29;19921;-87
2022/12/31 06:05:26;;;;;;;;;;;;;;;;;;4843400;29;20011;-89
2022/12/31 06:07:51;;;;;;;;;;;;;;;;;;4843400;29;19927;-87
2022/12/31 06:10:16;;;;;;;;;;;;;;;;;;4843364;29;19967;-87
2022/12/31 06:12:42;;;;;;;;;;;;;;;;;;4843735;29;20368;-87
2022/12/31 06:15:08;;;;;;;;;;;;;;;;;;4827079;29;20481;-88
2022/12/31 06:17:33;;;;;;;;;;;;;;;;;;4843344;29;19927;-88
2022/12/31 06:19:58;;;;;;;;;;;;;;;;;;4843353;29;20007;-87
2022/12/31 06:22:24;;;;;;;;;;;;;;;;;;4826814;29;20032;-88
2022/12/31 06:24:49;;;;;;;;;;;;;;;;;;4843297;29;19921;-89
2022/12/31 06:27:15;;;;;;;;;;;;;;;;;;4843333;29;19921;-88
2022/12/31 06:29:40;;;;;;;;;;;;;;;;;;4843209;29;19920;-90
2022/12/31 06:32:06;;;;;;;;;;;;;;;;;;4843147;29;19924;-90
2022/12/31 06:34:31;;;;;;;;;;;;;;;;;;4843688;29;19964;-87
2022/12/31 06:36:57;;;;;;;;;;;;;;;;;;4843176;29;20270;-88
2022/12/31 06:39:23;;;;;;;;;;;;;;;;;;4834822;29;19921;-89
2022/12/31 06:41:48;;;;;;;;;;;;;;;;;;4824308;29;19974;-86
2022/12/31 06:44:14;;;;;;;;;;;;;;;;;;4808204;29;19928;-87
2022/12/31 06:46:39;;;;;;;;;;;;;;;;;;4824251;29;19924;-88
2022/12/31 06:49:05;;;;;;;;;;;;;;;;;;4808252;29;20374;-89
2022/12/31 06:51:30;;;;;;;;;;;;;;;;;;4824733;29;19975;-88
2022/12/31 06:53:55;;;;;;;;;;;;;;;;;;4825249;29;20336;-89
2022/12/31 06:56:24;;;;;;;;;;;;;;;;;;4811974;29;19920;-88
2022/12/31 06:58:49;;;;;;;;;;;;;;;;;;4828203;29;19921;-87
2022/12/31 07:01:33;;;;;;;;;;;;;;;;;;4828322;29;19932;-90
2022/12/31 07:04:25;;;;;;;;;;;;;;;;;;4827708;29;19992;-88
2022/12/31 07:07:02;;;;;;;;;;;;;;;;;;4830951;29;20366;-87
2022/12/31 07:09:42;;;;;;;;;;;;;;;;;;4839172;29;19925;-87
2022/12/31 07:12:14;;;;;;;;;;;;;;;;;;4832360;29;20412;-87
2022/12/31 07:14:53;;;;;;;;;;;;;;;;;;4847949;29;19946;-86
2022/12/31 07:17:24;;;;;;;;;;;;;;;;;;4813786;29;19921;-87
2022/12/31 07:20:08;;;;;;;;;;;;;;;;;;4812701;29;19921;-87
2022/12/31 07:22:34;;;;;;;;;;;;;;;;;;4828094;29;20392;-87
2022/12/31 07:25:00;;;;;;;;;;;;;;;;;;4826902;29;20019;-88
2022/12/31 07:27:51;;;;;;;;;;;;;;;;;;4809782;29;19960;-87
2022/12/31 07:30:21;;;;;;;;;;;;;;;;;;4807522;29;19944;-89
2022/12/31 07:32:47;;;;;;;;;;;;;;;;;;4827585;29;20358;-88
2022/12/31 07:35:27;;;;;;;;;;;;;;;;;;4826672;29;19928;-89
2022/12/31 07:37:52;;;;;;;;;;;;;;;;;;4826668;29;19928;-90
2022/12/31 07:40:27;;;;;;;;;;;;;;;;;;4826703;29;19921;-90
2022/12/31 07:43:03;;;;;;;;;;;;;;;;;;4826824;29;20671;-89
2022/12/31 07:45:35;;;;;;;;;;;;;;;;;;4827450;29;19931;-89
2022/12/31 07:48:01;;;;;;;;;;;;;;;;;;4827058;29;19928;-89
2022/12/31 07:50:26;;;;;;;;;;;;;;;;;;4826722;29;19924;-89
2022/12/31 07:52:52;;;;;;;;;;;;;;;;;;4827024;29;19920;-89
2022/12/31 07:55:17;;;;;;;;;;;;;;;;;;4810887;29;20015;-90
2022/12/31 07:57:53;;;;;;;;;;;;;;;;;;4810956;29;19969;-89
2022/12/31 08:00:19;;;;;;;;;;;;;;;;;;4810538;29;20368;-89
2022/12/31 08:02:47;;;;;;;;;;;;;;;;;;4826615;29;19972;-89
2022/12/31 08:05:28;;;;;;;;;;;;;;;;;;4825844;29;19920;-89
2022/12/31 08:07:53;;;;;;;;;;;;;;;;;;4826281;29;19956;-89
2022/12/31 08:10:37;;;;;;;;;;;;;;;;;;4827142;29;20008;-90
2022/12/31 08:13:07;;;;;;;;;;;;;;;;;;4826578;29;19924;-89
2022/12/31 08:15:33;;;;;;;;;;;;;;;;;;4826561;29;19921;-88
2022/12/31 08:17:59;;;;;;;;;;;;;;;;;;4809704;29;19928;-89
2022/12/31 08:20:25;;;;;;;;;;;;;;;;;;4809926;29;19925;-88
2022/12/31 08:22:53;;;;;;;;;;;;;;;;;;4826256;29;19925;-87
2022/12/31 08:25:24;;;;;;;;;;;;;;;;;;4825825;29;19966;-86
2022/12/31 08:28:08;;;;;;;;;;;;;;;;;;4825886;29;19917;-87
2022/12/31 08:30:48;;;;;;;;;;;;;;;;;;4826149;29;19960;-87
2022/12/31 08:33:22;;;;;;;;;;;;;;;;;;4826278;29;20032;-86
2022/12/31 08:36:06;;;;;;;;;;;;;;;;;;4810173;29;19997;-86
2022/12/31 08:38:34;;;;;;;;;;;;;;;;;;4825471;29;19972;-83
2022/12/31 08:41:07;;;;;;;;;;;;;;;;;;4826347;29;19921;-87
2022/12/31 08:43:40;;;;;;;;;;;;;;;;;;4824596;29;20513;-87
2022/12/31 08:46:10;;;;;;;;;;;;;;;;;;4825928;29;20370;-87
2022/12/31 08:48:39;;;;;;;;;;;;;;;;;;4827044;29;20353;-85
2022/12/31 08:51:06;;;;;;;;;;;;;;;;;;4810293;29;20024;-88
2022/12/31 08:53:31;;;;;;;;;;;;;;;;;;4824200;29;19921;-89
2022/12/31 08:56:02;;;;;;;;;;;;;;;;;;4825071;29;20393;-89
2022/12/31 08:58:46;;;;;;;;;;;;;;;;;;4825224;29;19920;-87
2022/12/31 09:01:13;;;;;;;;;;;;;;;;;;4825219;29;19946;-87
2022/12/31 09:03:50;;;;;;;;;;;;;;;;;;4809015;29;19952;-87
2022/12/31 09:06:21;;;;;;;;;;;;;;;;;;4825202;29;20003;-87
2022/12/31 09:08:51;;;;;;;;;;;;;;;;;;4824207;29;19925;-88
2022/12/31 09:11:18;;;;;;;;;;;;;;;;;;4823733;29;19927;-87
2022/12/31 09:14:02;;;;;;;;;;;;;;;;;;4823145;29;20305;-88
2022/12/31 09:16:35;;;;;;;;;;;;;;;;;;4824038;29;19925;-87
2022/12/31 09:19:00;;;;;;;;;;;;;;;;;;4825389;29;19921;-87
2022/12/31 09:21:26;;;;;;;;;;;;;;;;;;4808856;29;20352;-88
2022/12/31 09:23:51;;;;;;;;;;;;;;;;;;4824339;29;19921;-87
2022/12/31 09:26:26;;;;;;;;;;;;;;;;;;4821311;29;19928;-86
2022/12/31 09:28:57;;;;;;;;;;;;;;;;;;4824267;29;19936;-87
2022/12/31 09:31:38;;;;;;;;;;;;;;;;;;4813437;29;20028;-87
2022/12/31 09:34:22;;;;;;;;;;;;;;;;;;4822610;29;19965;-87
2022/12/31 09:36:49;;;;;;;;;;;;;;;;;;4823894;29;20000;-87
2022/12/31 09:39:18;;;;;;;;;;;;;;;;;;4807898;29;19921;-88
2022/12/31 09:41:46;;;;;;;;;;;;;;;;;;4807845;29;19931;-88
2022/12/31 09:44:30;;;;;;;;;;;;;;;;;;4820247;29;19925;-87
2022/12/31 09:47:08;;;;;;;;;;;;;;;;;;4806431;29;19925;-87
2022/12/31 09:49:33;;;;;;;;;;;;;;;;;;4789091;29;19961;-87
2022/12/31 09:52:08;;;;;;;;;;;;;;;;;;4804847;29;19971;-87
2022/12/31 09:54:36;;;;;;;;;;;;;;;;;;4807030;29;19952;-86
2022/12/31 09:57:20;;;;;;;;;;;;;;;;;;4805867;29;19964;-87
2022/12/31 09:59:59;;;;;;;;;;;;;;;;;;4806220;29;19917;-87
2022/12/31 10:02:43;;;;;;;;;;;;;;;;;;4807197;29;19925;-86
2022/12/31 10:05:21;;;;;;;;;;;;;;;;;;4807311;29;19921;-86
2022/12/31 10:07:52;;;;;;;;;;;;;;;;;;4805946;29;19921;-87
2022/12/31 10:10:27;;;;;;;;;;;;;;;;;;4805843;29;20066;-87
2022/12/31 10:12:52;;;;;;;;;;;;;;;;;;4807086;29;19922;-88
2022/12/31 10:15:36;;;;;;;;;;;;;;;;;;4807035;29;19925;-88
2022/12/31 10:18:22;;;;;;;;;;;;;;;;;;4806953;29;20446;-87
2022/12/31 10:21:01;;;;;;;;;;;;;;;;;;4807036;29;19928;-87
2022/12/31 10:23:38;;;;;;;;;;;;;;;;;;4807172;29;19921;-87
2022/12/31 10:26:06;;;;;;;;;;;;;;;;;;4806951;29;20446;-87
2022/12/31 10:28:32;;;;;;;;;;;;;;;;;;4806190;29;19978;-87
2022/12/31 10:31:09;;;;;;;;;;;;;;;;;;4806866;29;19925;-88
2022/12/31 10:33:41;;;;;;;;;;;;;;;;;;4807319;29;20318;-87
2022/12/31 10:36:24;;;;;;;;;;;;;;;;;;4805601;29;19948;-88
2022/12/31 10:38:54;;;;;;;;;;;;;;;;;;4806852;29;20290;-88
2022/12/31 10:41:38;;;;;;;;;;;;;;;;;;4803873;29;20024;-87
2022/12/31 10:44:06;;;;;;;;;;;;;;;;;;4805042;29;20437;-87
2022/12/31 10:46:52;;;;;;;;;;;;;;;;;;4804823;29;20293;-88
2022/12/31 10:49:36;;;;;;;;;;;;;;;;;;4787971;29;20016;-87
2022/12/31 10:52:25;;;;;;;;;;;;;;;;;;4805559;29;19925;-89
2022/12/31 10:54:56;;;;;;;;;;;;;;;;;;4789013;29;19921;-87
2022/12/31 10:57:44;;;;;;;;;;;;;;;;;;4806834;29;19944;-88
2022/12/31 11:00:12;;;;;;;;;;;;;;;;;;4806845;29;20389;-86
2022/12/31 11:02:56;;;;;;;;;;;;;;;;;;4806556;29;20457;-87
2022/12/31 11:05:40;;;;;;;;;;;;;;;;;;4805409;29;19921;-88
2022/12/31 11:08:09;;;;;;;;;;;;;;;;;;4807929;29;19917;-88
2022/12/31 11:10:49;;;;;;;;;;;;;;;;;;4820486;29;19928;-87
2022/12/31 11:13:14;;;;;;;;;;;;;;;;;;4811391;29;19977;-87
2022/12/31 11:15:58;;;;;;;;;;;;;;;;;;4831258;29;19916;-87
2022/12/31 11:18:42;;;;;;;;;;;;;;;;;;4841880;29;19925;-88
2022/12/31 11:21:22;;;;;;;;;;;;;;;;;;4828880;29;19953;-86
2022/12/31 11:23:51;;;;;;;;;;;;;;;;;;4824362;29;19924;-88
2022/12/31 11:26:29;;;;;;;;;;;;;;;;;;4825011;29;19921;-86
2022/12/31 11:29:05;;;;;;;;;;;;;;;;;;4823909;29;19932;-87
2022/12/31 11:31:42;;;;;;;;;;;;;;;;;;4824135;29;19928;-87
2022/12/31 11:34:20;;;;;;;;;;;;;;;;;;4824325;29;20309;-87
2022/12/31 11:37:02;;;;;;;;;;;;;;;;;;4824227;29;20029;-87
2022/12/31 11:39:46;;;;;;;;;;;;;;;;;;4808577;29;20396;-87
2022/12/31 11:42:25;;;;;;;;;;;;;;;;;;4827021;29;20035;-87
2022/12/31 11:44:58;;;;;;;;;;;;;;;;;;4811510;29;19920;-87
2022/12/31 11:47:46;;;;;;;;;;;;;;;;;;4827554;29;20007;-86
2022/12/31 11:50:12;;;;;;;;;;;;;;;;;;4827436;29;19929;-86
2022/12/31 11:52:42;;;;;;;;;;;;;;;;;;4827813;29;19921;-86
2022/12/31 11:55:26;;;;;;;;;;;;;;;;;;4827784;29;20266;-87
2022/12/31 11:57:52;;;;;;;;;;;;;;;;;;4826105;29;19927;-87
2022/12/31 12:00:19;;;;;;;;;;;;;;;;;;4827474;29;19921;-86
2022/12/31 12:02:52;;;;;;;;;;;;;;;;;;4827162;29;20486;-87
2022/12/31 12:05:19;;;;;;;;;;;;;;;;;;4827283;29;20033;-87
2022/12/31 12:07:45;;;;;;;;;;;;;;;;;;4827332;29;19939;-88
2022/12/31 12:10:25;;;;;;;;;;;;;;;;;;4827222;29;19921;-87
2022/12/31 12:12:51;;;;;;;;;;;;;;;;;;4827007;29;20405;-88
2022/12/31 12:15:20;;;;;;;;;;;;;;;;;;4826893;29;19921;-88
2022/12/31 12:17:49;;;;;;;;;;;;;;;;;;4810567;29;19964;-88
2022/12/31 12:20:17;;;;;;;;;;;;;;;;;;4810572;29;20438;-87
2022/12/31 12:22:53;;;;;;;;;;;;;;;;;;4810443;29;19975;-87
2022/12/31 12:25:20;;;;;;;;;;;;;;;;;;4810412;29;20001;-87
2022/12/31 12:27:45;;;;;;;;;;;;;;;;;;4810682;29;20377;-87
2022/12/31 12:30:31;;;;;;;;;;;;;;;;;;4827075;29;20019;-86
2022/12/31 12:32:58;;;;;;;;;;;;;;;;;;4826230;29;19972;-88
2022/12/31 12:35:28;;;;;;;;;;;;;;;;;;4825992;29;19924;-87
2022/12/31 12:37:58;;;;;;;;;;;;;;;;;;4826984;29;20003;-87
2022/12/31 12:40:23;;;;;;;;;;;;;;;;;;4810499;29;20007;-87
2022/12/31 12:42:50;;;;;;;;;;;;;;;;;;4824873;29;20348;-87
2022/12/31 12:45:17;;;;;;;;;;;;;;;;;;4825997;29;19920;-87
2022/12/31 12:47:43;;;;;;;;;;;;;;;;;;4826630;29;19921;-87
2022/12/31 12:50:14;;;;;;;;;;;;;;;;;;4810199;29;20001;-88
2022/12/31 12:52:45;;;;;;;;;;;;;;;;;;4826112;29;20311;-87
2022/12/31 12:55:25;;;;;;;;;;;;;;;;;;4826744;29;19927;-87
2022/12/31 12:57:54;;;;;;;;;;;;;;;;;;4826717;29;20004;-88
2022/12/31 13:00:39;;;;;;;;;;;;;;;;;;4827084;29;19928;-87
2022/12/31 13:03:12;;;;;;;;;;;;;;;;;;4825915;29;19928;-87
2022/12/31 13:05:43;;;;;;;;;;;;;;;;;;4825082;29;19925;-86
2022/12/31 13:08:08;;;;;;;;;;;;;;;;;;4822775;29;19929;-89
2022/12/31 13:10:46;;;;;;;;;;;;;;;;;;4825394;29;19933;-88
2022/12/31 13:13:18;;;;;;;;;;;;;;;;;;4824305;29;19921;-88
2022/12/31 13:15:46;;;;;;;;;;;;;;;;;;4808442;29;20438;-87
2022/12/31 13:18:20;;;;;;;;;;;;;;;;;;4808353;29;19921;-88
2022/12/31 13:20:55;;;;;;;;;;;;;;;;;;4807049;29;19921;-87
2022/12/31 13:23:39;;;;;;;;;;;;;;;;;;4808874;29;19922;-88
2022/12/31 13:26:04;;;;;;;;;;;;;;;;;;4823213;29;19921;-88
2022/12/31 13:28:31;;;;;;;;;;;;;;;;;;4825265;29;20353;-86
2022/12/31 13:31:18;;;;;;;;;;;;;;;;;;4825824;29;19921;-87
2022/12/31 13:33:47;;;;;;;;;;;;;;;;;;4824238;29;19924;-87
2022/12/31 13:36:19;;;;;;;;;;;;;;;;;;4818855;29;20019;-88
2022/12/31 13:38:49;;;;;;;;;;;;;;;;;;4822903;29;19925;-88
2022/12/31 13:41:18;;;;;;;;;;;;;;;;;;4824339;29;20387;-88
2022/12/31 13:43:46;;;;;;;;;;;;;;;;;;4823678;29;19925;-88
2022/12/31 13:46:23;;;;;;;;;;;;;;;;;;4824060;29;19953;-87
2022/12/31 13:48:51;;;;;;;;;;;;;;;;;;4808585;29;19935;-86
2022/12/31 13:51:21;;;;;;;;;;;;;;;;;;4826733;29;19928;-89
2022/12/31 13:53:56;;;;;;;;;;;;;;;;;;4825313;29;19999;-87
2022/12/31 13:56:26;;;;;;;;;;;;;;;;;;4826436;29;20024;-87
2022/12/31 13:59:05;;;;;;;;;;;;;;;;;;4834890;24;19957;-88
2022/12/31 14:01:38;;;;;;;;;;;;;;;;;;4819137;29;19928;-87
2022/12/31 14:04:15;;;;;;;;;;;;;;;;;;4826565;29;19925;-86
2022/12/31 14:06:44;;;;;;;;;;;;;;;;;;4826265;29;20382;-87
2022/12/31 14:09:16;;;;;;;;;;;;;;;;;;4826052;29;19932;-86
2022/12/31 14:11:48;;;;;;;;;;;;;;;;;;4809479;29;20286;-85
2022/12/31 14:14:22;;;;;;;;;;;;;;;;;;4825487;29;19928;-86
2022/12/31 14:16:51;;;;;;;;;;;;;;;;;;4826192;29;19965;-87
2022/12/31 14:19:25;;;;;;;;;;;;;;;;;;4830264;29;20381;-85
2022/12/31 14:21:53;;;;;;;;;;;;;;;;;;4826537;29;20293;-86
2022/12/31 14:24:36;;;;;;;;;;;;;;;;;;4825914;29;20381;-85
2022/12/31 14:27:04;;;;;;;;;;;;;;;;;;4809383;29;20277;-85
2022/12/31 14:29:32;;;;;;;;;;;;;;;;;;4825573;29;19925;-84
2022/12/31 14:32:10;;;;;;;;;;;;;;;;;;4825466;29;19916;-86
2022/12/31 14:35:14;;;;;;;;;;;;;;;;;;4825132;29;20404;-88
2022/12/31 14:37:54;;;;;;;;;;;;;;;;;;4751873;30;19922;-87
2022/12/31 14:40:28;;;;;;;;;;;;;;;;;;4751911;30;20502;-87
2022/12/31 14:42:53;;;;;;;;;;;;;;;;;;4736176;30;19922;-86
2022/12/31 14:45:37;;;;;;;;;;;;;;;;;;4736491;30;20446;-87
2022/12/31 14:48:21;;;;;;;;;;;;;;;;;;4736930;30;19922;-86
2022/12/31 14:50:47;;;;;;;;;;;;;;;;;;4751486;30;20001;-85
2022/12/31 14:53:22;;;;;;;;;;;;;;;;;;4751676;30;20470;-86
2022/12/31 14:56:01;;;;;;;;;;;;;;;;;;4751783;30;20015;-86
2022/12/31 14:58:36;;;;;;;;;;;;;;;;;;4751332;30;20040;-88
2022/12/31 15:01:08;;;;;;;;;;;;;;;;;;4736467;30;19922;-84
2022/12/31 15:03:38;;;;;;;;;;;;;;;;;;4750973;30;20035;-86
2022/12/31 15:06:21;;;;;;;;;;;;;;;;;;4751679;30;19958;-86
2022/12/31 15:09:05;;;;;;;;;;;;;;;;;;4788283;29;19921;-85
2022/12/31 15:11:44;;;;;;;;;;;;;;;;;;4821863;29;19925;-87
2022/12/31 15:14:49;;;;;;;;;;;;;;;;;;4841740;29;19925;-85
2022/12/31 15:17:32;;;;;;;;;;;;;;;;;;4792109;30;19929;-85
2022/12/31 15:20:03;;;;;;;;;;;;;;;;;;4768415;30;19944;-85
2022/12/31 15:22:36;;;;;;;;;;;;;;;;;;4807505;29;20032;-84
2022/12/31 15:25:01;;;;;;;;;;;;;;;;;;4812078;29;20369;-88
2022/12/31 15:27:27;;;;;;;;;;;;;;;;;;4828061;29;19921;-87
2022/12/31 15:29:55;;;;;;;;;;;;;;;;;;4828349;29;19921;-84
2022/12/31 15:32:40;;;;;;;;;;;;;;;;;;4811850;29;19973;-85
2022/12/31 15:35:26;;;;;;;;;;;;;;;;;;4828043;29;20365;-87
2022/12/31 15:38:03;;;;;;;;;;;;;;;;;;4827561;29;19927;-84
2022/12/31 15:40:29;;;;;;;;;;;;;;;;;;4827626;29;19920;-85
2022/12/31 15:42:58;;;;;;;;;;;;;;;;;;4827485;29;20346;-85
2022/12/31 15:45:30;;;;;;;;;;;;;;;;;;4827893;29;19993;-85
2022/12/31 15:47:57;;;;;;;;;;;;;;;;;;4827667;29;19931;-86
2022/12/31 15:50:23;;;;;;;;;;;;;;;;;;4827190;29;19925;-85
2022/12/31 15:52:56;;;;;;;;;;;;;;;;;;4810986;29;19921;-86
2022/12/31 15:55:31;;;;;;;;;;;;;;;;;;4827238;29;19920;-84
2022/12/31 15:58:05;;;;;;;;;;;;;;;;;;4827233;29;19940;-85
2022/12/31 16:00:45;;;;;;;;;;;;;;;;;;4840142;29;19939;-85
2022/12/31 16:03:21;;;;;;;;;;;;;;;;;;4845506;29;20011;-86
2022/12/31 16:05:47;;;;;;;;;;;;;;;;;;4845574;29;20361;-84
2022/12/31 16:08:17;;;;;;;;;;;;;;;;;;4845915;29;19920;-84
2022/12/31 16:10:42;;;;;;;;;;;;;;;;;;4845614;29;19963;-84
2022/12/31 16:13:16;;;;;;;;;;;;;;;;;;4845591;29;20003;-86
2022/12/31 16:15:41;;;;;;;;;;;;;;;;;;4845029;29;20426;-84
2022/12/31 16:18:14;;;;;;;;;;;;;;;;;;4844647;29;19920;-85
2022/12/31 16:20:41;;;;;;;;;;;;;;;;;;4842918;29;20019;-86
2022/12/31 16:23:23;;;;;;;;;;;;;;;;;;4819638;29;20003;-85
2022/12/31 16:25:50;;;;;;;;;;;;;;;;;;4825509;29;19943;-85
2022/12/31 16:28:17;;;;;;;;;;;;;;;;;;4826058;29;19997;-86
2022/12/31 16:30:42;;;;;;;;;;;;;;;;;;4809894;29;20393;-86
2022/12/31 16:33:13;;;;;;;;;;;;;;;;;;4837931;29;19968;-89
2022/12/31 16:35:39;;;;;;;;;;;;;;;;;;4808940;29;19921;-85
2022/12/31 16:38:17;;;;;;;;;;;;;;;;;;4809301;29;19928;-86
2022/12/31 16:41:01;;;;;;;;;;;;;;;;;;4807948;29;19922;-86
2022/12/31 16:43:28;;;;;;;;;;;;;;;;;;4808695;29;19997;-86
2022/12/31 16:46:05;;;;;;;;;;;;;;;;;;4808559;29;19928;-86
2022/12/31 16:48:30;;;;;;;;;;;;;;;;;;4809456;29;19959;-86
2022/12/31 16:50:56;;;;;;;;;;;;;;;;;;4837556;29;19991;-86
2022/12/31 16:53:24;;;;;;;;;;;;;;;;;;4808741;29;19929;-86
2022/12/31 16:55:52;;;;;;;;;;;;;;;;;;4808388;29;19932;-85
2022/12/31 16:58:27;;;;;;;;;;;;;;;;;;4837279;29;20374;-86
2022/12/31 17:00:53;;;;;;;;;;;;;;;;;;4822285;29;20002;-85
2022/12/31 17:03:20;;;;;;;;;;;;;;;;;;4813303;29;19999;-89
2022/12/31 17:05:56;;;;;;;;;;;;;;;;;;4810182;29;19925;-88
2022/12/31 17:08:24;;;;;;;;;;;;;;;;;;4810369;29;19921;-87
2022/12/31 17:10:49;;;;;;;;;;;;;;;;;;4809999;29;20008;-88
2022/12/31 17:13:27;;;;;;;;;;;;;;;;;;4826562;29;19925;-88
2022/12/31 17:15:53;;;;;;;;;;;;;;;;;;4810106;29;19986;-88
2022/12/31 17:18:23;;;;;;;;;;;;;;;;;;4810368;29;20258;-87
2022/12/31 17:20:49;;;;;;;;;;;;;;;;;;4810065;29;20326;-88
2022/12/31 17:23:26;;;;;;;;;;;;;;;;;;4810490;29;19977;-86